sensor_id;sensor_type;location;lat;lon;timestamp;pressure;altitude;pressure_sealevel;temperature;humidity
29417;BME280;28421;51.030;4.006;2024-01-30T00:02:21;102549.56;;;9.28;100.00
29417;BME280;28421;51.030;4.006;2024-01-30T00:04:47;102540.78;;;9.15;100.00
29417;BME280;28421;51.030;4.006;2024-01-30T00:07:12;102531.38;;;9.20;100.00
29417;BME280;28421;51.030;4.006;2024-01-30T00:09:38;102526.66;;;9.13;100.00
29417;BME280;28421;51.030;4.006;2024-01-30T00:12:05;102534.81;;;9.23;100.00
29417;BME280;28421;51.030;4.006;2024-01-30T00:14:31;102536.41;;;9.25;100.00
29417;BME280;28421;51.030;4.006;2024-01-30T00:16:57;102547.25;;;9.35;100.00
29417;BME280;28421;51.030;4.006;2024-01-30T00:19:22;102543.97;;;9.31;100.00
29417;BME280;28421;51.030;4.006;2024-01-30T00:21:49;102539.34;;;9.33;100.00
29417;BME280;28421;51.030;4.006;2024-01-30T00:24:14;102541.50;;;9.39;100.00
29417;BME280;28421;51.030;4.006;2024-01-30T00:26:39;102524.78;;;9.36;100.00
29417;BME280;28421;51.030;4.006;2024-01-30T00:29:05;102527.47;;;9.36;100.00
29417;BME280;28421;51.030;4.006;2024-01-30T00:31:31;102515.75;;;9.37;100.00
29417;BME280;28421;51.030;4.006;2024-01-30T00:33:56;102516.97;;;9.33;100.00
29417;BME280;28421;51.030;4.006;2024-01-30T00:36:22;102513.34;;;9.34;100.00
29417;BME280;28421;51.030;4.006;2024-01-30T00:38:47;102519.19;;;9.39;100.00
29417;BME280;28421;51.030;4.006;2024-01-30T00:41:13;102525.50;;;9.49;100.00
29417;BME280;28421;51.030;4.006;2024-01-30T00:43:39;102504.06;;;9.38;100.00
29417;BME280;28421;51.030;4.006;2024-01-30T00:46:04;102499.78;;;9.35;100.00
29417;BME280;28421;51.030;4.006;2024-01-30T00:48:30;102518.91;;;9.53;100.00
29417;BME280;28421;51.030;4.006;2024-01-30T00:50:55;102479.28;;;9.34;100.00
29417;BME280;28421;51.030;4.006;2024-01-30T00:53:21;102518.66;;;9.56;100.00
29417;BME280;28421;51.030;4.006;2024-01-30T00:55:46;102513.06;;;9.59;100.00
29417;BME280;28421;51.030;4.006;2024-01-30T00:58:12;102486.84;;;9.40;100.00
29417;BME280;28421;51.030;4.006;2024-01-30T01:00:38;102486.72;;;9.42;100.00
29417;BME280;28421;51.030;4.006;2024-01-30T01:03:04;102513.78;;;9.61;100.00
29417;BME280;28421;51.030;4.006;2024-01-30T01:05:30;102454.16;;;9.24;100.00
29417;BME280;28421;51.030;4.006;2024-01-30T01:07:55;102517.81;;;9.67;100.00
29417;BME280;28421;51.030;4.006;2024-01-30T01:10:21;102515.47;;;9.74;100.00
29417;BME280;28421;51.030;4.006;2024-01-30T01:12:48;102484.16;;;9.52;100.00
29417;BME280;28421;51.030;4.006;2024-01-30T01:15:13;102485.50;;;9.46;100.00
29417;BME280;28421;51.030;4.006;2024-01-30T01:17:40;102487.81;;;9.51;100.00
29417;BME280;28421;51.030;4.006;2024-01-30T01:20:06;102511.94;;;9.62;100.00
29417;BME280;28421;51.030;4.006;2024-01-30T01:22:32;102461.22;;;9.36;100.00
29417;BME280;28421;51.030;4.006;2024-01-30T01:24:59;102507.91;;;9.67;100.00
29417;BME280;28421;51.030;4.006;2024-01-30T01:27:24;102484.13;;;9.63;100.00
29417;BME280;28421;51.030;4.006;2024-01-30T01:29:50;102506.09;;;9.68;100.00
29417;BME280;28421;51.030;4.006;2024-01-30T01:32:16;102494.03;;;9.62;100.00
29417;BME280;28421;51.030;4.006;2024-01-30T01:34:41;102442.81;;;9.32;100.00
29417;BME280;28421;51.030;4.006;2024-01-30T01:37:07;102473.63;;;9.60;100.00
29417;BME280;28421;51.030;4.006;2024-01-30T01:39:33;102485.47;;;9.57;100.00
29417;BME280;28421;51.030;4.006;2024-01-30T01:41:58;102471.22;;;9.45;100.00
29417;BME280;28421;51.030;4.006;2024-01-30T01:44:24;102463.91;;;9.36;100.00
29417;BME280;28421;51.030;4.006;2024-01-30T01:46:51;102492.56;;;9.47;100.00
29417;BME280;28421;51.030;4.006;2024-01-30T01:49:17;102469.16;;;9.38;100.00
29417;BME280;28421;51.030;4.006;2024-01-30T01:51:45;102480.38;;;9.43;100.00
29417;BME280;28421;51.030;4.006;2024-01-30T01:54:12;102486.69;;;9.53;100.00
29417;BME280;28421;51.030;4.006;2024-01-30T01:56:39;102473.19;;;9.43;100.00
29417;BME280;28421;51.030;4.006;2024-01-30T01:59:06;102484.00;;;9.53;100.00
29417;BME280;28421;51.030;4.006;2024-01-30T02:01:34;102492.03;;;9.64;100.00
29417;BME280;28421;51.030;4.006;2024-01-30T02:04:00;102494.88;;;9.63;100.00
29417;BME280;28421;51.030;4.006;2024-01-30T02:06:26;102490.22;;;9.65;100.00
29417;BME280;28421;51.030;4.006;2024-01-30T02:08:52;102465.22;;;9.53;100.00
29417;BME280;28421;51.030;4.006;2024-01-30T02:11:18;102468.50;;;9.57;100.00
29417;BME280;28421;51.030;4.006;2024-01-30T02:13:45;102486.50;;;9.77;100.00
29417;BME280;28421;51.030;4.006;2024-01-30T02:16:10;102457.00;;;9.66;100.00
29417;BME280;28421;51.030;4.006;2024-01-30T02:18:36;102464.78;;;9.80;100.00
29417;BME280;28421;51.030;4.006;2024-01-30T02:21:07;102468.19;;;9.82;100.00
29417;BME280;28421;51.030;4.006;2024-01-30T02:23:33;102474.03;;;9.87;100.00
29417;BME280;28421;51.030;4.006;2024-01-30T02:25:59;102477.69;;;9.86;100.00
29417;BME280;28421;51.030;4.006;2024-01-30T02:28:25;102452.59;;;9.76;100.00
29417;BME280;28421;51.030;4.006;2024-01-30T02:30:51;102460.47;;;9.89;100.00
29417;BME280;28421;51.030;4.006;2024-01-30T02:33:17;102456.09;;;9.88;100.00
29417;BME280;28421;51.030;4.006;2024-01-30T02:35:42;102457.56;;;9.81;100.00
29417;BME280;28421;51.030;4.006;2024-01-30T02:38:08;102435.25;;;9.69;100.00
29417;BME280;28421;51.030;4.006;2024-01-30T02:40:33;102469.59;;;9.98;100.00
29417;BME280;28421;51.030;4.006;2024-01-30T02:42:59;102473.28;;;9.96;100.00
29417;BME280;28421;51.030;4.006;2024-01-30T02:45:25;102478.50;;;9.98;100.00
29417;BME280;28421;51.030;4.006;2024-01-30T02:47:51;102483.03;;;9.98;100.00
29417;BME280;28421;51.030;4.006;2024-01-30T02:50:16;102476.22;;;9.93;100.00
29417;BME280;28421;51.030;4.006;2024-01-30T02:52:42;102472.63;;;10.04;100.00
29417;BME280;28421;51.030;4.006;2024-01-30T02:55:11;102481.16;;;10.09;100.00
29417;BME280;28421;51.030;4.006;2024-01-30T02:57:37;102463.34;;;10.08;100.00
29417;BME280;28421;51.030;4.006;2024-01-30T03:00:03;102408.28;;;9.70;100.00
29417;BME280;28421;51.030;4.006;2024-01-30T03:02:30;102465.41;;;10.05;100.00
29417;BME280;28421;51.030;4.006;2024-01-30T03:04:56;102464.88;;;10.11;100.00
29417;BME280;28421;51.030;4.006;2024-01-30T03:07:21;102458.72;;;9.99;100.00
29417;BME280;28421;51.030;4.006;2024-01-30T03:09:47;102449.16;;;10.06;100.00
29417;BME280;28421;51.030;4.006;2024-01-30T03:12:13;102469.22;;;10.23;100.00
29417;BME280;28421;51.030;4.006;2024-01-30T03:14:39;102456.97;;;10.09;100.00
29417;BME280;28421;51.030;4.006;2024-01-30T03:17:04;102463.53;;;10.16;100.00
29417;BME280;28421;51.030;4.006;2024-01-30T03:19:30;102459.13;;;10.15;100.00
29417;BME280;28421;51.030;4.006;2024-01-30T03:21:55;102477.06;;;10.26;100.00
29417;BME280;28421;51.030;4.006;2024-01-30T03:24:21;102472.06;;;10.21;100.00
29417;BME280;28421;51.030;4.006;2024-01-30T03:26:46;102476.22;;;10.26;100.00
29417;BME280;28421;51.030;4.006;2024-01-30T03:29:12;102450.84;;;10.07;100.00
29417;BME280;28421;51.030;4.006;2024-01-30T03:31:39;102457.22;;;10.06;100.00
29417;BME280;28421;51.030;4.006;2024-01-30T03:34:04;102447.00;;;10.00;100.00
29417;BME280;28421;51.030;4.006;2024-01-30T03:36:30;102459.50;;;10.11;100.00
29417;BME280;28421;51.030;4.006;2024-01-30T03:38:58;102454.47;;;10.17;100.00
29417;BME280;28421;51.030;4.006;2024-01-30T03:41:23;102410.63;;;9.96;100.00
29417;BME280;28421;51.030;4.006;2024-01-30T03:43:49;102445.75;;;10.04;100.00
29417;BME280;28421;51.030;4.006;2024-01-30T03:46:15;102442.97;;;9.94;100.00
29417;BME280;28421;51.030;4.006;2024-01-30T03:48:41;102407.72;;;9.88;100.00
29417;BME280;28421;51.030;4.006;2024-01-30T03:51:06;102436.34;;;9.99;100.00
29417;BME280;28421;51.030;4.006;2024-01-30T03:53:32;102441.03;;;9.96;100.00
29417;BME280;28421;51.030;4.006;2024-01-30T03:55:57;102435.25;;;10.01;100.00
29417;BME280;28421;51.030;4.006;2024-01-30T03:58:23;102442.94;;;10.06;100.00
29417;BME280;28421;51.030;4.006;2024-01-30T04:00:48;102461.25;;;10.12;100.00
29417;BME280;28421;51.030;4.006;2024-01-30T04:03:17;102456.72;;;10.12;100.00
29417;BME280;28421;51.030;4.006;2024-01-30T04:05:42;102446.41;;;9.96;100.00
29417;BME280;28421;51.030;4.006;2024-01-30T04:08:08;102443.97;;;9.93;100.00
29417;BME280;28421;51.030;4.006;2024-01-30T04:10:34;102448.94;;;9.98;100.00
29417;BME280;28421;51.030;4.006;2024-01-30T04:13:00;102452.22;;;10.02;100.00
29417;BME280;28421;51.030;4.006;2024-01-30T04:15:26;102455.91;;;10.01;100.00
29417;BME280;28421;51.030;4.006;2024-01-30T04:17:51;102455.38;;;10.07;100.00
29417;BME280;28421;51.030;4.006;2024-01-30T04:20:17;102451.19;;;9.93;100.00
29417;BME280;28421;51.030;4.006;2024-01-30T04:22:46;102451.38;;;10.01;100.00
29417;BME280;28421;51.030;4.006;2024-01-30T04:25:13;102463.59;;;10.05;100.00
29417;BME280;28421;51.030;4.006;2024-01-30T04:27:38;102436.16;;;9.90;100.00
29417;BME280;28421;51.030;4.006;2024-01-30T04:30:04;102435.06;;;9.93;100.00
29417;BME280;28421;51.030;4.006;2024-01-30T04:32:30;102446.66;;;9.93;100.00
29417;BME280;28421;51.030;4.006;2024-01-30T04:34:55;102454.78;;;10.03;100.00
29417;BME280;28421;51.030;4.006;2024-01-30T04:37:21;102444.16;;;10.02;100.00
29417;BME280;28421;51.030;4.006;2024-01-30T04:39:46;102429.03;;;10.01;100.00
29417;BME280;28421;51.030;4.006;2024-01-30T04:42:12;102438.09;;;10.00;100.00
29417;BME280;28421;51.030;4.006;2024-01-30T04:44:37;102395.06;;;9.79;100.00
29417;BME280;28421;51.030;4.006;2024-01-30T04:47:03;102436.56;;;10.07;100.00
29417;BME280;28421;51.030;4.006;2024-01-30T04:49:30;102447.53;;;10.15;100.00
29417;BME280;28421;51.030;4.006;2024-01-30T04:51:55;102445.69;;;10.15;100.00
29417;BME280;28421;51.030;4.006;2024-01-30T04:54:21;102445.56;;;10.17;100.00
29417;BME280;28421;51.030;4.006;2024-01-30T04:56:47;102408.31;;;9.91;100.00
29417;BME280;28421;51.030;4.006;2024-01-30T04:59:12;102436.16;;;10.11;100.00
29417;BME280;28421;51.030;4.006;2024-01-30T05:01:38;102399.03;;;9.95;100.00
29417;BME280;28421;51.030;4.006;2024-01-30T05:04:03;102446.72;;;10.24;100.00
29417;BME280;28421;51.030;4.006;2024-01-30T05:06:29;102439.81;;;10.21;100.00
29417;BME280;28421;51.030;4.006;2024-01-30T05:08:55;102442.28;;;10.13;100.00
29417;BME280;28421;51.030;4.006;2024-01-30T05:11:21;102454.22;;;10.20;100.00
29417;BME280;28421;51.030;4.006;2024-01-30T05:13:46;102446.53;;;10.16;100.00
29417;BME280;28421;51.030;4.006;2024-01-30T05:16:12;102447.88;;;10.21;100.00
29417;BME280;28421;51.030;4.006;2024-01-30T05:18:38;102431.78;;;10.10;100.00
29417;BME280;28421;51.030;4.006;2024-01-30T05:21:03;102436.91;;;10.13;100.00
29417;BME280;28421;51.030;4.006;2024-01-30T05:23:30;102437.22;;;10.20;100.00
29417;BME280;28421;51.030;4.006;2024-01-30T05:25:55;102434.88;;;10.06;100.00
29417;BME280;28421;51.030;4.006;2024-01-30T05:28:21;102426.09;;;10.04;100.00
29417;BME280;28421;51.030;4.006;2024-01-30T05:30:46;102427.66;;;10.06;100.00
29417;BME280;28421;51.030;4.006;2024-01-30T05:33:11;102435.72;;;10.06;100.00
29417;BME280;28421;51.030;4.006;2024-01-30T05:35:38;102430.13;;;9.98;100.00
29417;BME280;28421;51.030;4.006;2024-01-30T05:38:04;102431.38;;;9.94;100.00
29417;BME280;28421;51.030;4.006;2024-01-30T05:40:30;102436.75;;;9.94;100.00
29417;BME280;28421;51.030;4.006;2024-01-30T05:42:56;102443.13;;;9.93;100.00
29417;BME280;28421;51.030;4.006;2024-01-30T05:45:23;102458.00;;;9.97;100.00
29417;BME280;28421;51.030;4.006;2024-01-30T05:47:49;102462.28;;;10.00;100.00
29417;BME280;28421;51.030;4.006;2024-01-30T05:50:14;102463.50;;;9.95;100.00
29417;BME280;28421;51.030;4.006;2024-01-30T05:52:40;102463.50;;;9.95;100.00
29417;BME280;28421;51.030;4.006;2024-01-30T05:55:06;102454.03;;;9.80;100.00
29417;BME280;28421;51.030;4.006;2024-01-30T05:57:32;102441.63;;;9.68;100.00
29417;BME280;28421;51.030;4.006;2024-01-30T05:59:57;102460.97;;;9.83;100.00
29417;BME280;28421;51.030;4.006;2024-01-30T06:02:23;102436.75;;;9.62;100.00
29417;BME280;28421;51.030;4.006;2024-01-30T06:04:48;102478.19;;;9.91;100.00
29417;BME280;28421;51.030;4.006;2024-01-30T06:07:14;102466.22;;;9.84;100.00
29417;BME280;28421;51.030;4.006;2024-01-30T06:09:39;102423.91;;;9.65;100.00
29417;BME280;28421;51.030;4.006;2024-01-30T06:12:06;102495.38;;;10.00;100.00
29417;BME280;28421;51.030;4.006;2024-01-30T06:14:32;102481.09;;;10.00;100.00
29417;BME280;28421;51.030;4.006;2024-01-30T06:16:59;102479.25;;;10.00;100.00
29417;BME280;28421;51.030;4.006;2024-01-30T06:19:25;102498.13;;;10.10;100.00
29417;BME280;28421;51.030;4.006;2024-01-30T06:21:50;102473.38;;;9.95;100.00
29417;BME280;28421;51.030;4.006;2024-01-30T06:24:16;102467.25;;;10.04;100.00
29417;BME280;28421;51.030;4.006;2024-01-30T06:26:42;102477.03;;;10.05;100.00
29417;BME280;28421;51.030;4.006;2024-01-30T06:29:08;102488.22;;;10.10;100.00
29417;BME280;28421;51.030;4.006;2024-01-30T06:31:39;102500.22;;;10.06;100.00
29417;BME280;28421;51.030;4.006;2024-01-30T06:34:05;102500.69;;;10.11;100.00
29417;BME280;28421;51.030;4.006;2024-01-30T06:36:30;102457.66;;;9.90;100.00
29417;BME280;28421;51.030;4.006;2024-01-30T06:38:56;102492.13;;;10.17;100.00
29417;BME280;28421;51.030;4.006;2024-01-30T06:41:21;102517.59;;;10.34;100.00
29417;BME280;28421;51.030;4.006;2024-01-30T06:43:47;102465.81;;;10.00;100.00
29417;BME280;28421;51.030;4.006;2024-01-30T06:46:12;102497.50;;;10.17;100.00
29417;BME280;28421;51.030;4.006;2024-01-30T06:48:38;102504.31;;;10.21;100.00
29417;BME280;28421;51.030;4.006;2024-01-30T06:51:06;102511.25;;;10.24;100.00
29417;BME280;28421;51.030;4.006;2024-01-30T06:53:31;102492.63;;;10.11;100.00
29417;BME280;28421;51.030;4.006;2024-01-30T06:55:57;102472.09;;;10.10;100.00
29417;BME280;28421;51.030;4.006;2024-01-30T06:58:22;102521.13;;;10.35;100.00
29417;BME280;28421;51.030;4.006;2024-01-30T07:00:48;102508.94;;;10.31;100.00
29417;BME280;28421;51.030;4.006;2024-01-30T07:03:13;102532.25;;;10.41;100.00
29417;BME280;28421;51.030;4.006;2024-01-30T07:05:39;102497.03;;;10.12;100.00
29417;BME280;28421;51.030;4.006;2024-01-30T07:08:04;102506.78;;;10.25;100.00
29417;BME280;28421;51.030;4.006;2024-01-30T07:10:30;102512.88;;;10.27;100.00
29417;BME280;28421;51.030;4.006;2024-01-30T07:12:56;102500.88;;;10.19;100.00
29417;BME280;28421;51.030;4.006;2024-01-30T07:15:22;102546.53;;;10.42;100.00
29417;BME280;28421;51.030;4.006;2024-01-30T07:17:47;102522.13;;;10.34;100.00
29417;BME280;28421;51.030;4.006;2024-01-30T07:20:13;102521.69;;;10.29;100.00
29417;BME280;28421;51.030;4.006;2024-01-30T07:22:40;102549.22;;;10.42;100.00
29417;BME280;28421;51.030;4.006;2024-01-30T07:25:05;102490.41;;;10.16;100.00
29417;BME280;28421;51.030;4.006;2024-01-30T07:27:31;102542.47;;;10.48;100.00
29417;BME280;28421;51.030;4.006;2024-01-30T07:29:57;102506.66;;;10.26;100.00
29417;BME280;28421;51.030;4.006;2024-01-30T07:32:22;102519.31;;;10.35;100.00
29417;BME280;28421;51.030;4.006;2024-01-30T07:34:49;102520.16;;;10.36;100.00
29417;BME280;28421;51.030;4.006;2024-01-30T07:37:14;102556.75;;;10.48;100.00
29417;BME280;28421;51.030;4.006;2024-01-30T07:39:41;102566.47;;;10.60;100.00
29417;BME280;28421;51.030;4.006;2024-01-30T07:42:08;102546.75;;;10.50;100.00
29417;BME280;28421;51.030;4.006;2024-01-30T07:44:34;102539.78;;;10.48;100.00
29417;BME280;28421;51.030;4.006;2024-01-30T07:46:59;102540.94;;;10.34;100.00
29417;BME280;28421;51.030;4.006;2024-01-30T07:49:25;102562.13;;;10.48;100.00
29417;BME280;28421;51.030;4.006;2024-01-30T07:51:50;102545.78;;;10.40;100.00
29417;BME280;28421;51.030;4.006;2024-01-30T07:54:16;102525.31;;;10.28;100.00
29417;BME280;28421;51.030;4.006;2024-01-30T07:56:41;102519.94;;;10.28;100.00
29417;BME280;28421;51.030;4.006;2024-01-30T07:59:10;102580.06;;;10.59;100.00
29417;BME280;28421;51.030;4.006;2024-01-30T08:01:37;102561.75;;;10.53;100.00
29417;BME280;28421;51.030;4.006;2024-01-30T08:04:04;102575.88;;;10.66;100.00
29417;BME280;28421;51.030;4.006;2024-01-30T08:06:29;102577.69;;;10.65;100.00
29417;BME280;28421;51.030;4.006;2024-01-30T08:08:55;102532.28;;;10.30;100.00
29417;BME280;28421;51.030;4.006;2024-01-30T08:11:22;102554.53;;;10.53;100.00
29417;BME280;28421;51.030;4.006;2024-01-30T08:13:52;102579.47;;;10.55;100.00
29417;BME280;28421;51.030;4.006;2024-01-30T08:16:18;102586.50;;;10.67;100.00
29417;BME280;28421;51.030;4.006;2024-01-30T08:18:44;102591.63;;;10.70;100.00
29417;BME280;28421;51.030;4.006;2024-01-30T08:21:09;102585.66;;;10.67;100.00
29417;BME280;28421;51.030;4.006;2024-01-30T08:23:35;102600.63;;;10.81;100.00
29417;BME280;28421;51.030;4.006;2024-01-30T08:26:00;102604.75;;;10.85;100.00
29417;BME280;28421;51.030;4.006;2024-01-30T08:28:26;102602.59;;;10.79;100.00
29417;BME280;28421;51.030;4.006;2024-01-30T08:30:52;102575.16;;;10.64;100.00
29417;BME280;28421;51.030;4.006;2024-01-30T08:33:18;102607.59;;;10.83;100.00
29417;BME280;28421;51.030;4.006;2024-01-30T08:35:43;102595.97;;;10.83;100.00
29417;BME280;28421;51.030;4.006;2024-01-30T08:38:09;102612.88;;;10.94;100.00
29417;BME280;28421;51.030;4.006;2024-01-30T08:40:34;102624.38;;;10.97;100.00
29417;BME280;28421;51.030;4.006;2024-01-30T08:43:00;102618.41;;;10.93;100.00
29417;BME280;28421;51.030;4.006;2024-01-30T08:45:26;102623.28;;;10.99;100.00
29417;BME280;28421;51.030;4.006;2024-01-30T08:47:51;102632.41;;;10.87;100.00
29417;BME280;28421;51.030;4.006;2024-01-30T08:50:17;102613.63;;;10.76;100.00
29417;BME280;28421;51.030;4.006;2024-01-30T08:52:43;102618.75;;;10.79;100.00
29417;BME280;28421;51.030;4.006;2024-01-30T08:55:08;102619.44;;;10.81;100.00
29417;BME280;28421;51.030;4.006;2024-01-30T08:57:34;102633.91;;;10.80;100.00
29417;BME280;28421;51.030;4.006;2024-01-30T09:00:00;102609.22;;;10.75;100.00
29417;BME280;28421;51.030;4.006;2024-01-30T09:02:27;102631.53;;;10.86;100.00
29417;BME280;28421;51.030;4.006;2024-01-30T09:04:53;102587.22;;;10.69;100.00
29417;BME280;28421;51.030;4.006;2024-01-30T09:07:18;102619.91;;;10.86;100.00
29417;BME280;28421;51.030;4.006;2024-01-30T09:09:44;102623.41;;;10.98;100.00
29417;BME280;28421;51.030;4.006;2024-01-30T09:12:10;102623.09;;;10.91;100.00
29417;BME280;28421;51.030;4.006;2024-01-30T09:14:37;102626.13;;;10.86;100.00
29417;BME280;28421;51.030;4.006;2024-01-30T09:17:03;102648.66;;;11.06;100.00
29417;BME280;28421;51.030;4.006;2024-01-30T09:19:30;102637.44;;;11.01;100.00
29417;BME280;28421;51.030;4.006;2024-01-30T09:21:55;102632.66;;;11.05;100.00
29417;BME280;28421;51.030;4.006;2024-01-30T09:24:21;102635.50;;;11.24;100.00
29417;BME280;28421;51.030;4.006;2024-01-30T09:26:46;102616.13;;;11.09;100.00
29417;BME280;28421;51.030;4.006;2024-01-30T09:29:12;102600.63;;;11.02;100.00
29417;BME280;28421;51.030;4.006;2024-01-30T09:31:37;102633.63;;;11.25;100.00
29417;BME280;28421;51.030;4.006;2024-01-30T09:34:03;102623.13;;;11.22;100.00
29417;BME280;28421;51.030;4.006;2024-01-30T09:36:28;102648.44;;;11.40;100.00
29417;BME280;28421;51.030;4.006;2024-01-30T09:38:54;102682.31;;;11.33;100.00
29417;BME280;28421;51.030;4.006;2024-01-30T09:41:24;102656.16;;;11.24;100.00
29417;BME280;28421;51.030;4.006;2024-01-30T09:43:50;102689.88;;;11.49;100.00
29417;BME280;28421;51.030;4.006;2024-01-30T09:46:17;102688.66;;;11.32;100.00
29417;BME280;28421;51.030;4.006;2024-01-30T09:48:46;102667.50;;;11.27;100.00
29417;BME280;28421;51.030;4.006;2024-01-30T09:51:14;102675.72;;;11.26;100.00
29417;BME280;28421;51.030;4.006;2024-01-30T09:53:42;102688.75;;;11.20;100.00
29417;BME280;28421;51.030;4.006;2024-01-30T09:56:08;102700.16;;;11.34;100.00
29417;BME280;28421;51.030;4.006;2024-01-30T09:58:34;102695.78;;;11.33;100.00
29417;BME280;28421;51.030;4.006;2024-01-30T10:00:59;102694.97;;;11.21;100.00
29417;BME280;28421;51.030;4.006;2024-01-30T10:03:25;102700.28;;;11.11;100.00
29417;BME280;28421;51.030;4.006;2024-01-30T10:05:51;102697.97;;;11.07;100.00
29417;BME280;28421;51.030;4.006;2024-01-30T10:08:20;102725.06;;;10.94;100.00
29417;BME280;28421;51.030;4.006;2024-01-30T10:10:49;102720.69;;;10.93;100.00
29417;BME280;28421;51.030;4.006;2024-01-30T10:13:15;102743.47;;;10.78;100.00
29417;BME280;28421;51.030;4.006;2024-01-30T10:15:41;102748.78;;;10.68;100.00
29417;BME280;28421;51.030;4.006;2024-01-30T10:18:08;102727.16;;;10.58;100.00
29417;BME280;28421;51.030;4.006;2024-01-30T10:20:35;102713.63;;;10.37;100.00
29417;BME280;28421;51.030;4.006;2024-01-30T10:23:01;102757.75;;;10.46;100.00
29417;BME280;28421;51.030;4.006;2024-01-30T10:25:26;102749.59;;;10.25;100.00
29417;BME280;28421;51.030;4.006;2024-01-30T10:27:53;102749.31;;;10.39;100.00
29417;BME280;28421;51.030;4.006;2024-01-30T10:30:22;102763.50;;;10.30;100.00
29417;BME280;28421;51.030;4.006;2024-01-30T10:32:48;102765.28;;;10.07;100.00
29417;BME280;28421;51.030;4.006;2024-01-30T10:35:14;102720.81;;;10.03;100.00
29417;BME280;28421;51.030;4.006;2024-01-30T10:37:43;102709.25;;;9.91;100.00
29417;BME280;28421;51.030;4.006;2024-01-30T10:40:09;102759.97;;;10.41;100.00
29417;BME280;28421;51.030;4.006;2024-01-30T10:42:42;102745.66;;;10.29;100.00
29417;BME280;28421;51.030;4.006;2024-01-30T10:45:09;102740.25;;;10.40;100.00
29417;BME280;28421;51.030;4.006;2024-01-30T10:47:36;102723.63;;;10.24;100.00
29417;BME280;28421;51.030;4.006;2024-01-30T10:50:02;102732.47;;;10.26;100.00
29417;BME280;28421;51.030;4.006;2024-01-30T10:52:32;102765.72;;;10.25;100.00
29417;BME280;28421;51.030;4.006;2024-01-30T10:54:59;102773.66;;;10.27;99.64
29417;BME280;28421;51.030;4.006;2024-01-30T10:57:26;102778.03;;;10.39;100.00
29417;BME280;28421;51.030;4.006;2024-01-30T10:59:59;102734.88;;;10.52;100.00
29417;BME280;28421;51.030;4.006;2024-01-30T11:02:26;102749.59;;;10.80;98.39
29417;BME280;28421;51.030;4.006;2024-01-30T11:04:57;102759.13;;;10.84;96.36
29417;BME280;28421;51.030;4.006;2024-01-30T11:07:27;102688.66;;;10.58;94.13
29417;BME280;28421;51.030;4.006;2024-01-30T11:12:29;102723.91;;;10.87;92.32
29417;BME280;28421;51.030;4.006;2024-01-30T11:15:21;102756.03;;;11.00;93.39
29417;BME280;28421;51.030;4.006;2024-01-30T11:20:29;102710.34;;;10.45;94.02
29417;BME280;28421;51.030;4.006;2024-01-30T11:22:57;102739.81;;;10.79;94.99
29417;BME280;28421;51.030;4.006;2024-01-30T11:25:23;102760.13;;;10.83;93.89
29417;BME280;28421;51.030;4.006;2024-01-30T11:27:50;102781.69;;;11.04;94.98
29417;BME280;28421;51.030;4.006;2024-01-30T11:30:30;102749.22;;;10.84;94.92
29417;BME280;28421;51.030;4.006;2024-01-30T11:35:35;102748.06;;;10.98;93.61
29417;BME280;28421;51.030;4.006;2024-01-30T11:38:02;102773.31;;;11.18;94.02
29417;BME280;28421;51.030;4.006;2024-01-30T11:40:29;102762.97;;;11.02;93.01
29417;BME280;28421;51.030;4.006;2024-01-30T11:42:59;102733.47;;;11.12;93.75
29417;BME280;28421;51.030;4.006;2024-01-30T11:45:29;102773.47;;;11.05;94.23
29417;BME280;28421;51.030;4.006;2024-01-30T11:47:55;102766.34;;;11.15;93.69
29417;BME280;28421;51.030;4.006;2024-01-30T11:50:21;102720.16;;;10.67;91.98
29417;BME280;28421;51.030;4.006;2024-01-30T11:52:47;102771.44;;;11.30;93.23
29417;BME280;28421;51.030;4.006;2024-01-30T11:55:14;102770.38;;;11.21;90.34
29417;BME280;28421;51.030;4.006;2024-01-30T11:57:40;102763.28;;;11.20;89.95
29417;BME280;28421;51.030;4.006;2024-01-30T12:00:14;102742.66;;;10.98;89.83
29417;BME280;28421;51.030;4.006;2024-01-30T12:02:40;102778.41;;;11.00;89.12
29417;BME280;28421;51.030;4.006;2024-01-30T12:05:07;102720.88;;;11.01;91.02
29417;BME280;28421;51.030;4.006;2024-01-30T12:07:33;102763.63;;;11.15;90.27
29417;BME280;28421;51.030;4.006;2024-01-30T12:09:59;102747.63;;;10.82;88.26
29417;BME280;28421;51.030;4.006;2024-01-30T12:12:25;102780.75;;;10.82;88.97
29417;BME280;28421;51.030;4.006;2024-01-30T12:14:51;102755.38;;;10.64;90.74
29417;BME280;28421;51.030;4.006;2024-01-30T12:17:30;102784.56;;;10.80;91.79
29417;BME280;28421;51.030;4.006;2024-01-30T12:22:42;102759.94;;;10.52;91.44
29417;BME280;28421;51.030;4.006;2024-01-30T12:25:09;102781.56;;;10.62;92.51
29417;BME280;28421;51.030;4.006;2024-01-30T12:27:35;102791.44;;;10.61;93.90
29417;BME280;28421;51.030;4.006;2024-01-30T12:30:05;102794.50;;;10.23;94.50
29417;BME280;28421;51.030;4.006;2024-01-30T12:32:30;102776.19;;;10.39;95.81
29417;BME280;28421;51.030;4.006;2024-01-30T12:34:56;102797.84;;;10.27;95.84
29417;BME280;28421;51.030;4.006;2024-01-30T12:37:24;102789.97;;;10.01;96.04
29417;BME280;28421;51.030;4.006;2024-01-30T12:39:51;102804.53;;;10.10;97.02
29417;BME280;28421;51.030;4.006;2024-01-30T12:42:19;102806.63;;;10.17;97.15
29417;BME280;28421;51.030;4.006;2024-01-30T12:44:46;102766.13;;;9.74;97.93
29417;BME280;28421;51.030;4.006;2024-01-30T12:47:12;102791.34;;;9.95;100.00
29417;BME280;28421;51.030;4.006;2024-01-30T12:49:37;102810.88;;;9.98;100.00
29417;BME280;28421;51.030;4.006;2024-01-30T12:52:03;102798.63;;;9.71;100.00